Time;durP1;ratioP1;P1;durP2;ratioP2;P2;SDS_P1;SDS_P2;PMS_P1;PMS_P2;Temp;Humidity;BMP_temperature;BMP_pressure;BME280_temperature;BME280_humidity;BME280_pressure;Samples;Min_cycle;Max_cycle;Signal;HPM_P1;HPM_P2
2023/10/17 00:00:32;;;;;;;5.40;5.00;;;9.50;43.10;;;;;;20453;6861;308716;-76
2023/10/17 00:02:56;;;;;;;4.30;4.10;;;9.60;42.90;;;;;;20664;6861;118200;-76
2023/10/17 00:05:23;;;;;;;5.13;4.00;;;9.40;43.30;;;;;;20642;6861;118292;-76
2023/10/17 00:07:47;;;;;;;5.10;4.80;;;9.00;44.00;;;;;;20452;6861;338098;-76
2023/10/17 00:10:18;;;;;;;4.45;4.15;;;9.00;44.40;;;;;;20657;6861;117518;-76
2023/10/17 00:12:44;;;;;;;4.40;4.10;;;8.90;44.60;;;;;;20647;6861;117801;-76
2023/10/17 00:15:37;;;;;;;;;;;;;;;;;;;;;
2023/10/17 00:17:36;;;;;;;4.63;3.93;;;8.40;45.20;;;;;;20449;6861;119725;-77
2023/10/17 00:20:16;;;;;;;5.90;5.40;;;8.20;45.50;;;;;;20450;6861;311995;-76
2023/10/17 00:22:35;;;;;;;5.20;4.70;;;8.30;45.20;;;;;;20625;6861;120110;-76
2023/10/17 00:24:58;;;;;;;4.67;4.27;;;8.30;45.20;;;;;;20644;6861;117335;-76
2023/10/17 00:27:22;;;;;;;4.80;4.40;;;8.10;45.50;;;;;;20622;6861;120294;-76
2023/10/17 00:29:50;;;;;;;4.22;3.90;;;8.00;45.80;;;;;;20648;6861;119367;-76
2023/10/17 00:32:16;;;;;;;5.33;4.93;;;7.80;46.00;;;;;;20438;6861;308987;-76
2023/10/17 00:34:43;;;;;;;5.20;4.80;;;8.00;45.80;;;;;;20437;6861;308661;-76
2023/10/17 00:37:19;;;;;;;4.90;4.60;;;8.30;45.50;;;;;;20440;6861;279870;-76
2023/10/17 00:39:46;;;;;;;4.80;4.50;;;8.70;44.70;;;;;;20441;6860;282514;-76
2023/10/17 00:42:09;;;;;;;4.97;4.67;;;8.90;44.30;;;;;;20447;6860;279045;-76
2023/10/17 00:44:41;;;;;;;4.10;3.85;;;9.10;43.90;;;;;;20676;6861;117743;-76
2023/10/17 00:47:30;;;;;;;5.10;4.80;;;8.80;44.00;;;;;;20449;6861;312588;-75
2023/10/17 00:49:33;;;;;;;4.50;4.20;;;8.80;44.10;;;;;;20477;6861;119808;-75
2023/10/17 00:51:59;;;;;;;4.60;4.30;;;8.60;44.40;;;;;;20430;6861;283585;-76
2023/10/17 00:54:29;;;;;;;5.22;4.93;;;8.60;44.40;;;;;;20448;6861;279919;-75
2023/10/17 00:56:55;;;;;;;4.30;4.00;;;8.80;44.10;;;;;;20655;6861;119095;-76
2023/10/17 00:59:24;;;;;;;5.35;4.95;;;8.60;44.40;;;;;;20422;6861;300274;-76
2023/10/17 01:01:48;;;;;;;4.03;3.83;;;8.60;44.70;;;;;;20652;6861;117484;-76
2023/10/17 01:04:14;;;;;;;4.70;4.40;;;8.40;44.70;;;;;;20444;6861;308648;-77
2023/10/17 01:06:39;;;;;;;4.80;4.50;;;8.40;44.50;;;;;;20452;6861;308353;-77
2023/10/17 01:09:47;;;;;;;5.10;4.75;;;8.80;44.10;;;;;;20447;6861;309544;-75
2023/10/17 01:11:38;;;;;;;5.40;4.90;;;8.80;44.10;;;;;;20210;6861;341426;-76
2023/10/17 01:14:04;;;;;;;4.25;3.87;;;8.80;44.50;;;;;;20650;6861;117783;-75
2023/10/17 01:16:31;;;;;;;3.73;3.53;;;8.40;45.20;;;;;;20655;6861;117295;-75
2023/10/17 01:19:00;;;;;;;4.00;3.70;;;8.30;44.90;;;;;;20657;6861;118777;-76
2023/10/17 01:21:23;;;;;;;5.20;4.90;;;8.00;45.00;;;;;;20419;6861;279966;-77
2023/10/17 01:23:48;;;;;;;4.87;4.57;;;8.10;45.60;;;;;;20446;6861;280952;-76
2023/10/17 01:26:20;;;;;;;4.47;4.18;;;8.30;45.20;;;;;;20655;6861;117243;-76
2023/10/17 01:28:49;;;;;;;4.78;4.47;;;8.20;45.10;;;;;;20447;6861;312714;-76
2023/10/17 01:31:16;;;;;;;3.93;3.73;;;8.00;45.00;;;;;;20629;6861;118809;-77
2023/10/17 01:33:43;;;;;;;5.93;5.53;;;8.00;45.00;;;;;;20445;6861;281137;-76
2023/10/17 01:36:09;;;;;;;5.28;4.87;;;8.00;44.80;;;;;;20436;6861;347836;-77
2023/10/17 01:38:32;;;;;;;4.73;4.43;;;8.10;44.70;;;;;;20644;6861;118209;-76
2023/10/17 01:41:02;;;;;;;5.80;5.40;;;8.00;44.90;;;;;;20462;6861;308517;-77
2023/10/17 01:43:24;;;;;;;5.55;5.25;;;8.00;45.10;;;;;;20404;6861;300970;-77
2023/10/17 01:45:50;;;;;;;5.83;5.43;;;8.10;44.40;;;;;;20453;6861;308958;-77
2023/10/17 01:48:16;;;;;;;5.90;5.50;;;8.30;44.30;;;;;;20452;6861;309573;-77
2023/10/17 01:50:41;;;;;;;5.77;5.37;;;8.30;44.10;;;;;;20450;6859;313644;-77
2023/10/17 01:53:12;;;;;;;5.32;4.55;;;8.40;44.30;;;;;;20652;6860;118368;-77
2023/10/17 01:55:35;;;;;;;5.70;5.30;;;8.10;44.50;;;;;;20435;6860;280928;-77
2023/10/17 01:58:06;;;;;;;5.50;5.20;;;8.00;44.90;;;;;;20458;6861;278996;-77
2023/10/17 02:03:03;;;;;;;4.80;4.50;;;7.90;44.60;;;;;;20666;6861;118122;-77
2023/10/17 02:05:28;;;;;;;5.80;5.30;;;7.50;45.40;;;;;;20421;6861;308679;-76
2023/10/17 02:07:55;;;;;;;4.83;4.53;;;7.50;45.40;;;;;;20653;6861;118593;-76
2023/10/17 02:10:21;;;;;;;5.45;5.15;;;7.40;45.50;;;;;;20444;6861;309045;-77
2023/10/17 02:12:48;;;;;;;4.70;4.40;;;7.40;45.70;;;;;;20660;6861;117734;-77
2023/10/17 02:15:19;;;;;;;4.90;4.43;;;7.40;45.70;;;;;;20661;6861;117263;-76
2023/10/17 02:17:40;;;;;;;6.13;4.90;;;7.20;46.00;;;;;;20649;6861;117424;-77
2023/10/17 02:20:19;;;;;;;6.30;5.80;;;7.10;46.50;;;;;;20451;6861;308637;-76
2023/10/17 02:22:44;;;;;;;5.90;5.50;;;7.10;46.50;;;;;;20415;6861;284207;-76
2023/10/17 02:25:01;;;;;;;5.72;5.32;;;7.50;45.90;;;;;;20423;6861;340994;-77
2023/10/17 02:27:28;;;;;;;6.03;5.63;;;7.80;45.40;;;;;;20429;6861;337824;-77
2023/10/17 02:29:53;;;;;;;5.82;5.53;;;8.00;44.80;;;;;;20430;6861;309973;-77
2023/10/17 02:32:19;;;;;;;5.30;4.90;;;7.90;44.60;;;;;;20652;6861;117363;-77
2023/10/17 02:34:47;;;;;;;5.50;5.17;;;7.90;44.60;;;;;;20439;6861;311333;-76
2023/10/17 02:37:16;;;;;;;4.85;4.55;;;7.90;45.40;;;;;;20648;6861;118652;-77
2023/10/17 02:39:39;;;;;;;5.57;5.27;;;7.80;45.10;;;;;;20419;6861;283575;-77
2023/10/17 02:42:08;;;;;;;5.20;4.90;;;7.90;45.20;;;;;;20443;6861;309087;-77
2023/10/17 02:44:33;;;;;;;5.20;4.90;;;8.10;44.70;;;;;;20450;6861;279080;-77
2023/10/17 02:47:01;;;;;;;4.70;4.40;;;8.20;44.60;;;;;;20660;6861;117249;-76
2023/10/17 02:49:26;;;;;;;4.47;4.17;;;8.20;44.60;;;;;;20634;6861;118536;-77
2023/10/17 02:51:53;;;;;;;4.85;4.55;;;7.90;45.20;;;;;;20438;6861;279146;-77
2023/10/17 02:54:18;;;;;;;4.87;4.63;;;8.20;44.90;;;;;;20452;6861;284674;-76
2023/10/17 02:56:53;;;;;;;5.30;5.00;;;8.20;44.90;;;;;;20446;6861;309046;-77
2023/10/17 02:59:21;;;;;;;5.33;4.93;;;8.60;43.70;;;;;;20427;6861;281308;-75
2023/10/17 03:01:45;;;;;;;4.90;4.57;;;8.60;43.70;;;;;;20644;6859;117578;-77
2023/10/17 03:04:10;;;;;;;5.10;4.80;;;8.40;44.00;;;;;;20440;6860;280842;-76
2023/10/17 03:06:37;;;;;;;5.45;5.05;;;8.30;44.30;;;;;;20443;6860;279860;-76
2023/10/17 03:09:15;;;;;;;4.70;4.40;;;8.50;44.20;;;;;;20649;6861;117225;-76
2023/10/17 03:11:36;;;;;;;5.33;5.03;;;8.30;44.30;;;;;;20411;6861;280248;-76
2023/10/17 03:14:11;;;;;;;5.70;5.40;;;8.30;44.20;;;;;;20463;6861;279166;-82
2023/10/17 03:16:39;;;;;;;5.70;5.30;;;8.70;43.70;;;;;;20413;6861;310227;-74
2023/10/17 03:18:59;;;;;;;5.03;4.63;;;8.60;43.60;;;;;;20645;6861;118366;-74
2023/10/17 03:21:35;;;;;;;5.80;5.40;;;8.50;43.90;;;;;;20427;6861;308756;-74
2023/10/17 03:24:12;;;;;;;5.00;4.70;;;8.40;43.90;;;;;;20660;6861;118221;-74
2023/10/17 03:26:54;;;;;;;7.47;6.87;;;8.20;44.20;;;;;;20649;6861;120090;-75
2023/10/17 03:29:13;;;;;;;9.17;8.43;;;7.90;44.80;;;;;;20413;6861;308663;-74
2023/10/17 03:31:35;;;;;;;5.43;5.12;;;7.90;45.10;;;;;;20417;6861;309149;-74
2023/10/17 03:33:58;;;;;;;6.07;5.57;;;8.20;44.90;;;;;;20653;6861;117481;-74
2023/10/17 03:39:18;;;;;;;7.75;7.25;;;8.10;44.70;;;;;;20461;6861;309596;-76
2023/10/17 03:41:28;;;;;;;5.97;5.47;;;8.10;44.40;;;;;;20608;6861;118042;-75
2023/10/17 03:43:53;;;;;;;7.17;6.57;;;8.10;44.80;;;;;;20451;6861;279938;-73
2023/10/17 03:46:19;;;;;;;6.40;6.00;;;8.30;44.90;;;;;;20416;6861;338746;-74
2023/10/17 03:48:57;;;;;;;6.75;6.35;;;8.20;44.20;;;;;;20445;6861;279717;-74
2023/10/17 03:51:27;;;;;;;5.67;5.37;;;8.60;43.50;;;;;;20404;6861;304777;-74
2023/10/17 03:53:43;;;;;;;5.07;4.67;;;8.50;43.30;;;;;;20386;6861;311450;-74
2023/10/17 03:56:11;;;;;;;4.73;4.33;;;8.60;43.60;;;;;;20665;6861;117310;-75
2023/10/17 03:58:49;;;;;;;5.37;4.22;;;7.90;44.60;;;;;;20663;6861;117306;-74
2023/10/17 04:01:10;;;;;;;4.00;3.80;;;7.80;44.50;;;;;;20652;6861;117940;-75
2023/10/17 04:03:35;;;;;;;4.07;3.83;;;7.50;45.20;;;;;;20654;6861;123615;-75
2023/10/17 04:08:37;;;;;;;5.50;5.20;;;7.20;46.10;;;;;;20470;6861;282481;-74
2023/10/17 04:11:25;;;;;;;4.70;4.40;;;7.50;45.30;;;;;;20647;6861;117265;-74
2023/10/17 04:13:52;;;;;;;4.10;3.90;;;7.50;45.30;;;;;;20652;6859;117289;-77
2023/10/17 04:16:22;;;;;;;3.80;3.60;;;7.10;45.70;;;;;;20641;6860;117272;-74
2023/10/17 04:18:51;;;;;;;4.30;4.00;;;6.90;46.30;;;;;;20652;6861;121040;-74
2023/10/17 04:21:26;;;;;;;3.85;3.55;;;6.60;47.20;;;;;;20643;6861;117226;-76
2023/10/17 04:23:44;;;;;;;3.77;3.57;;;6.60;47.20;;;;;;20648;6861;117450;-74
2023/10/17 04:26:17;;;;;;;5.50;5.10;;;6.50;47.30;;;;;;20457;6861;309022;-75
2023/10/17 04:28:41;;;;;;;5.50;5.20;;;6.70;47.10;;;;;;20431;6861;308542;-75
2023/10/17 04:31:07;;;;;;;5.00;4.70;;;7.10;46.50;;;;;;20666;6861;117321;-74
2023/10/17 04:33:28;;;;;;;5.03;4.53;;;6.80;46.60;;;;;;20641;6861;117660;-73
2023/10/17 04:35:59;;;;;;;4.53;4.30;;;6.80;46.60;;;;;;20670;6861;117386;-73
2023/10/17 04:38:39;;;;;;;6.63;6.13;;;6.70;47.10;;;;;;20444;6861;308607;-76
2023/10/17 04:41:40;;;;;;;6.40;6.00;;;6.80;47.30;;;;;;20666;6861;117817;-73
2023/10/17 04:44:04;;;;;;;7.07;5.30;;;6.80;47.10;;;;;;20652;6808;117882;-74
2023/10/17 04:46:49;;;;;;;7.13;6.47;;;6.60;47.40;;;;;;20475;6780;285674;-74
2023/10/17 04:49:18;;;;;;;6.47;6.07;;;7.20;47.20;;;;;;20539;6778;307158;-74
2023/10/17 04:52:19;;;;;;;5.33;5.03;;;7.20;47.20;;;;;;20795;6774;117240;-73
2023/10/17 04:57:09;;;;;;;4.73;4.43;;;6.90;47.20;;;;;;20701;6808;117097;-75
2023/10/17 04:59:55;;;;;;;5.33;4.83;;;6.70;47.50;;;;;;20735;6777;119140;-74
2023/10/17 06:16:54;;;;;;;5.13;4.83;;;9.60;44.50;;;;;;20539;6827;278536;-72
2023/10/17 06:19:20;;;;;;;5.00;4.70;;;9.80;43.90;;;;;;20424;6842;279484;-72
2023/10/17 06:26:59;;;;;;;5.00;4.70;;;9.70;44.30;;;;;;20507;6837;306267;-72
2023/10/17 06:34:16;;;;;;;3.47;3.17;;;9.10;45.90;;;;;;20731;6837;116782;-73
2023/10/17 06:36:42;;;;;;;5.30;5.00;;;9.10;45.20;;;;;;20520;6837;282797;-72
2023/10/17 06:39:24;;;;;;;8.57;7.93;;;9.60;44.40;;;;;;20519;6837;307080;-72
2023/10/17 06:41:45;;;;;;;4.80;4.47;;;9.60;44.40;;;;;;20706;6837;117580;-72
2023/10/17 06:44:10;;;;;;;5.00;4.60;;;9.50;44.30;;;;;;20731;6837;116735;-72
2023/10/17 06:46:48;;;;;;;5.72;5.32;;;9.30;44.80;;;;;;20518;6837;307561;-71
2023/10/17 06:54:52;;;;;;;4.53;4.23;;;9.60;44.80;;;;;;20740;6837;122596;-79
2023/10/17 06:57:23;;;;;;;5.40;4.93;;;9.60;45.00;;;;;;20715;6837;117409;-77
2023/10/17 06:59:46;;;;;;;7.78;7.18;;;9.40;45.50;;;;;;20521;6837;332617;-75
2023/10/17 07:02:28;;;;;;;7.63;7.00;;;9.60;45.00;;;;;;20731;6837;123730;-73
2023/10/17 07:04:55;;;;;;;6.47;6.07;;;9.90;44.40;;;;;;20531;6837;319967;-74
2023/10/17 07:07:22;;;;;;;6.37;5.77;;;9.90;44.40;;;;;;20716;6837;117793;-75
2023/10/17 07:09:52;;;;;;;7.00;6.50;;;10.00;43.70;;;;;;20548;6832;285496;-77
2023/10/17 07:12:15;;;;;;;5.33;5.00;;;10.20;43.40;;;;;;20727;6832;117846;-78
2023/10/17 07:14:41;;;;;;;5.20;4.70;;;10.10;43.90;;;;;;20706;6846;116945;-73
2023/10/17 07:17:28;;;;;;;2.87;2.70;;;10.10;43.70;;;;;;20712;6844;119172;-76
2023/10/17 07:24:33;;;;;;;5.30;4.90;;;9.80;45.40;;;;;;20717;6845;120683;-79
2023/10/17 07:26:56;;;;;;;5.10;4.63;;;9.80;45.50;;;;;;20673;6845;118844;-81
2023/10/17 07:29:24;;;;;;;6.30;5.90;;;9.60;45.50;;;;;;20473;6845;279008;-75
2023/10/17 07:31:52;;;;;;;6.47;6.00;;;10.10;44.00;;;;;;20459;6845;281341;-80
2023/10/17 07:34:17;;;;;;;5.97;5.50;;;10.00;43.90;;;;;;20443;6845;311841;-79
2023/10/17 07:36:43;;;;;;;5.43;5.10;;;10.30;43.60;;;;;;20465;6846;278225;-75
2023/10/17 07:39:15;;;;;;;5.45;5.12;;;10.60;43.50;;;;;;20455;6846;310044;-73
2023/10/17 07:41:36;;;;;;;5.07;4.67;;;10.60;43.40;;;;;;20428;6846;293670;-77
2023/10/17 07:44:57;;;;;;;5.47;5.07;;;10.70;43.40;;;;;;20674;6846;117228;-75
2023/10/17 08:53:59;;;;;;;9.13;8.37;;;13.40;39.00;;;;;;21227;6514;74291;-78
2023/10/17 08:56:24;;;;;;;9.93;9.13;;;13.20;39.80;;;;;;20661;6862;122013;-73
2023/10/17 08:59:03;;;;;;;11.03;10.23;;;12.90;40.60;;;;;;20462;6850;339484;-73
2023/10/17 09:01:17;;;;;;;9.70;8.90;;;12.80;40.70;;;;;;20689;6835;117968;-73
2023/10/17 09:03:46;;;;;;;9.80;9.03;;;12.80;40.70;;;;;;20730;6835;117770;-76
2023/10/17 09:11:29;;;;;;;11.90;10.97;;;12.80;40.10;;;;;;20487;6844;293253;-74
2023/10/17 09:14:14;;;;;;;9.30;8.50;;;12.80;40.10;;;;;;20703;6844;117694;-75
2023/10/17 09:16:17;;;;;;;9.53;8.63;;;12.80;40.70;;;;;;20656;6844;117265;-78
2023/10/17 09:18:54;;;;;;;11.18;10.30;;;12.80;40.50;;;;;;20514;6837;278144;-76
2023/10/17 09:21:16;;;;;;;11.30;10.50;;;12.90;40.60;;;;;;20499;6837;337556;-75
2023/10/17 09:23:41;;;;;;;11.52;10.70;;;13.20;40.10;;;;;;20526;6837;336729;-77
2023/10/17 09:26:10;;;;;;;11.30;10.40;;;13.50;39.60;;;;;;20540;6823;277250;-73
2023/10/17 09:28:35;;;;;;;10.88;10.07;;;13.70;39.70;;;;;;20546;6823;312689;-77
2023/10/17 09:31:09;;;;;;;9.70;8.80;;;13.90;39.40;;;;;;20765;6823;118016;-73
2023/10/17 09:33:36;;;;;;;11.93;11.03;;;13.90;39.80;;;;;;20516;6823;277692;-73
2023/10/17 09:36:04;;;;;;;12.37;11.45;;;14.20;40.50;;;;;;20569;6823;307118;-75
2023/10/17 09:38:28;;;;;;;11.47;10.17;;;14.10;40.00;;;;;;20681;6853;118116;-73
2023/10/17 09:41:00;;;;;;;13.10;12.00;;;14.30;39.80;;;;;;20475;6853;308710;-73
2023/10/17 09:43:26;;;;;;;12.50;11.60;;;14.20;39.70;;;;;;20478;6837;279466;-74
2023/10/17 09:45:53;;;;;;;11.07;9.97;;;14.40;40.20;;;;;;20703;6850;117705;-73
2023/10/17 09:48:18;;;;;;;11.77;10.87;;;14.50;40.30;;;;;;20679;6850;120138;-74
2023/10/17 09:50:45;;;;;;;12.60;11.50;;;14.30;40.80;;;;;;20490;6839;308648;-77
2023/10/17 09:53:13;;;;;;;11.95;10.65;;;14.40;40.00;;;;;;20656;6839;122074;-80
2023/10/17 09:55:38;;;;;;;13.32;12.23;;;14.40;40.50;;;;;;20454;6850;307866;-75
2023/10/17 09:58:08;;;;;;;11.40;10.40;;;14.40;40.30;;;;;;20688;6839;118238;-74
2023/10/17 10:00:40;;;;;;;10.60;9.70;;;14.40;40.60;;;;;;20698;6839;118683;-78
2023/10/17 10:03:05;;;;;;;7.13;6.63;;;14.30;41.20;;;;;;20692;6848;117673;-73
2023/10/17 10:05:32;;;;;;;9.63;8.82;;;14.20;41.50;;;;;;20464;6849;314607;-78
2023/10/17 10:08:01;;;;;;;10.57;9.87;;;14.30;39.90;;;;;;20485;6849;283246;-73
2023/10/17 10:10:42;;;;;;;11.20;10.30;;;14.70;39.20;;;;;;20469;6850;305372;-78
2023/10/17 10:13:13;;;;;;;8.60;7.80;;;15.10;39.00;;;;;;20712;6845;118097;-77
2023/10/17 10:15:54;;;;;;;8.17;7.47;;;15.10;40.10;;;;;;20667;6845;117337;-73
2023/10/17 10:18:37;;;;;;;11.30;10.50;;;15.30;38.70;;;;;;20471;6846;338228;-77
2023/10/17 10:21:03;;;;;;;8.47;7.87;;;15.30;39.20;;;;;;20716;6844;117911;-74
2023/10/17 10:23:35;;;;;;;7.77;7.17;;;15.30;39.20;;;;;;20658;6834;118281;-75
2023/10/17 10:26:19;;;;;;;8.33;7.63;;;15.20;39.80;;;;;;20685;6854;117365;-73
2023/10/17 10:28:42;;;;;;;8.90;8.13;;;15.10;40.20;;;;;;20684;6854;117562;-73
2023/10/17 10:31:21;;;;;;;10.30;9.50;;;15.00;40.40;;;;;;20687;6853;117308;-76
2023/10/17 10:33:47;;;;;;;11.37;10.47;;;15.10;39.30;;;;;;20425;6853;308493;-76
2023/10/17 10:36:13;;;;;;;7.77;7.27;;;15.10;39.30;;;;;;20649;6862;117740;-76
2023/10/17 10:38:38;;;;;;;8.88;8.18;;;15.30;39.90;;;;;;20738;6832;117193;-76
2023/10/17 10:41:08;;;;;;;8.23;7.53;;;15.20;40.00;;;;;;20730;6832;117548;-77
2023/10/17 10:43:33;;;;;;;9.18;8.52;;;15.20;40.20;;;;;;20494;6834;310658;-75
2023/10/17 10:46:00;;;;;;;9.07;8.40;;;15.30;38.70;;;;;;20728;6840;120180;-76
2023/10/17 10:48:26;;;;;;;9.98;9.27;;;15.50;39.40;;;;;;20509;6840;278100;-76
2023/10/17 10:50:52;;;;;;;8.00;7.40;;;15.70;38.40;;;;;;20710;6825;119138;-78
2023/10/17 10:53:33;;;;;;;9.57;8.88;;;15.80;38.80;;;;;;20748;6825;123321;-74
2023/10/17 10:55:59;;;;;;;11.37;10.50;;;15.80;39.20;;;;;;20557;6825;278209;-78
2023/10/17 10:58:23;;;;;;;10.25;9.60;;;15.80;37.60;;;;;;20540;6825;278221;-75
2023/10/17 11:00:49;;;;;;;10.10;9.30;;;16.10;37.40;;;;;;20510;6840;311073;-78
2023/10/17 11:03:14;;;;;;;8.10;7.47;;;16.30;36.90;;;;;;20723;6840;117394;-77
2023/10/17 11:05:53;;;;;;;10.35;9.55;;;16.20;37.50;;;;;;20498;6840;332087;-74
2023/10/17 11:08:21;;;;;;;9.70;8.93;;;16.20;37.10;;;;;;20718;6840;119835;-77
2023/10/17 11:10:48;;;;;;;9.25;8.65;;;16.40;37.50;;;;;;20515;6840;338185;-72
2023/10/17 11:13:15;;;;;;;9.63;9.03;;;16.40;37.00;;;;;;20501;6840;300897;-73
2023/10/17 11:15:39;;;;;;;10.73;9.93;;;16.70;36.70;;;;;;20475;6843;300953;-75
2023/10/17 11:18:06;;;;;;;11.13;10.33;;;16.90;36.20;;;;;;20501;6844;313183;-72
2023/10/17 11:20:30;;;;;;;10.63;9.73;;;17.10;36.50;;;;;;20706;6844;124140;-73
2023/10/17 11:22:57;;;;;;;11.05;10.15;;;16.90;36.80;;;;;;20513;6844;308326;-71
2023/10/17 11:25:32;;;;;;;10.23;9.52;;;16.90;36.80;;;;;;20486;6844;309627;-73
2023/10/17 11:30:34;;;;;;;8.80;8.20;;;17.10;36.70;;;;;;19409;7210;353075;-76
2023/10/17 11:33:06;;;;;;;8.33;7.73;;;17.20;36.80;;;;;;19615;7210;119633;-78
2023/10/17 11:35:32;;;;;;;7.47;6.70;;;17.10;37.50;;;;;;20526;6844;119705;-75
2023/10/17 11:37:57;;;;;;;9.37;8.40;;;16.80;38.00;;;;;;20703;6845;120009;-73
2023/10/17 11:40:30;;;;;;;9.77;8.97;;;16.60;38.30;;;;;;20716;6842;117200;-75
2023/10/17 11:42:59;;;;;;;11.40;10.50;;;16.40;37.80;;;;;;20497;6842;342274;-75
2023/10/17 11:45:33;;;;;;;7.33;6.73;;;16.30;37.70;;;;;;20642;6842;120538;-73
2023/10/17 11:47:50;;;;;;;7.83;7.13;;;16.20;38.20;;;;;;20679;6842;117177;-74
2023/10/17 11:50:16;;;;;;;9.03;8.30;;;16.00;38.70;;;;;;20463;6860;302484;-74
2023/10/17 11:52:41;;;;;;;8.63;7.93;;;16.10;38.10;;;;;;20474;6837;312583;-78
2023/10/17 11:55:16;;;;;;;9.55;8.75;;;16.40;38.00;;;;;;20746;6837;117294;-75
2023/10/17 11:57:40;;;;;;;10.80;9.80;;;16.30;38.20;;;;;;20719;6837;117745;-75
2023/10/17 12:00:19;;;;;;;12.10;11.27;;;16.10;38.70;;;;;;20500;6846;308521;-76
2023/10/17 12:02:33;;;;;;;8.40;7.70;;;16.10;38.30;;;;;;20696;6836;117274;-77
2023/10/17 12:04:59;;;;;;;11.73;10.80;;;16.10;38.80;;;;;;20545;6827;312136;-74
2023/10/17 12:07:25;;;;;;;9.57;8.85;;;16.20;38.70;;;;;;20728;6827;132583;-77
2023/10/17 12:09:53;;;;;;;8.73;7.93;;;16.20;38.70;;;;;;20733;6834;118101;-74
2023/10/17 12:12:19;;;;;;;11.27;10.45;;;16.00;39.00;;;;;;20525;6834;307800;-73
2023/10/17 12:14:43;;;;;;;9.00;8.30;;;16.10;38.50;;;;;;20751;6834;117566;-75
2023/10/17 12:17:15;;;;;;;7.90;7.20;;;16.00;39.00;;;;;;20752;6834;117557;-77
2023/10/17 12:19:36;;;;;;;9.23;8.53;;;15.90;39.40;;;;;;20678;6849;119805;-74
2023/10/17 12:22:04;;;;;;;11.50;10.70;;;15.80;39.80;;;;;;20505;6834;310066;-75
2023/10/17 12:24:37;;;;;;;11.60;10.70;;;15.90;39.00;;;;;;20530;6834;308079;-73
2023/10/17 12:27:02;;;;;;;11.57;10.57;;;16.20;38.50;;;;;;20746;6832;117509;-72
2023/10/17 12:29:29;;;;;;;11.07;10.18;;;16.10;38.80;;;;;;20775;6819;122009;-74
2023/10/17 12:31:53;;;;;;;11.23;9.87;;;15.80;39.10;;;;;;20755;6823;117978;-72
2023/10/17 12:34:20;;;;;;;13.82;12.63;;;15.60;39.90;;;;;;20507;6836;308786;-73
2023/10/17 12:36:46;;;;;;;11.48;10.52;;;15.60;39.50;;;;;;20712;6832;120044;-73
2023/10/17 12:39:10;;;;;;;10.63;9.57;;;15.50;39.80;;;;;;20683;6852;117978;-73
2023/10/17 12:41:36;;;;;;;12.80;11.60;;;15.40;40.40;;;;;;20462;6852;309920;-73
2023/10/17 12:44:03;;;;;;;9.77;9.03;;;15.60;40.40;;;;;;20691;6852;117542;-72
2023/10/17 12:46:28;;;;;;;12.23;11.23;;;15.50;40.10;;;;;;20474;6852;298948;-75
2023/10/17 12:48:53;;;;;;;12.20;11.18;;;15.70;39.70;;;;;;20696;6852;117710;-75
2023/10/17 12:51:21;;;;;;;13.07;12.02;;;15.80;39.50;;;;;;20458;6852;312859;-73
2023/10/17 12:53:45;;;;;;;8.43;7.83;;;15.80;39.50;;;;;;20688;6852;117926;-72
2023/10/17 12:56:11;;;;;;;8.97;8.07;;;15.80;39.90;;;;;;20693;6852;119708;-71
2023/10/17 12:58:36;;;;;;;12.70;11.60;;;15.70;40.30;;;;;;20464;6852;309329;-73
2023/10/17 13:01:06;;;;;;;11.67;10.50;;;15.90;40.00;;;;;;20660;6852;117505;-71
2023/10/17 13:03:37;;;;;;;10.87;9.87;;;15.90;40.00;;;;;;20462;6852;279133;-71
2023/10/17 13:06:00;;;;;;;9.63;8.93;;;16.30;39.10;;;;;;20478;6852;280412;-73
2023/10/17 13:08:26;;;;;;;11.12;10.32;;;16.30;39.10;;;;;;20479;6852;312345;-72
2023/10/17 13:10:54;;;;;;;9.43;8.60;;;16.60;39.80;;;;;;20686;6852;117547;-71
2023/10/17 13:13:18;;;;;;;10.73;9.83;;;16.50;39.00;;;;;;20660;6852;119357;-71
2023/10/17 13:15:43;;;;;;;12.52;11.55;;;16.30;39.40;;;;;;20477;6852;281395;-73
2023/10/17 13:18:12;;;;;;;11.40;10.60;;;16.40;38.80;;;;;;20486;6852;297337;-70
2023/10/17 13:20:35;;;;;;;10.43;9.60;;;16.40;38.80;;;;;;20680;6852;119723;-73
2023/10/17 13:23:04;;;;;;;11.15;10.32;;;16.30;39.20;;;;;;20475;6852;312698;-71
2023/10/17 13:25:36;;;;;;;10.50;9.60;;;16.30;39.00;;;;;;20449;6852;319835;-71
2023/10/17 13:28:03;;;;;;;9.30;8.57;;;16.40;39.10;;;;;;20689;6852;121587;-73
2023/10/17 13:30:27;;;;;;;9.90;9.20;;;16.40;39.60;;;;;;20689;6852;117077;-72
2023/10/17 13:32:53;;;;;;;10.85;10.05;;;16.20;40.00;;;;;;20478;6852;278110;-73
2023/10/17 13:35:19;;;;;;;9.07;8.37;;;16.20;39.20;;;;;;20673;6852;130902;-72
2023/10/17 13:37:51;;;;;;;9.33;8.63;;;16.00;39.90;;;;;;20673;6852;117585;-72
2023/10/17 13:40:10;;;;;;;9.70;8.80;;;16.00;39.90;;;;;;20677;6851;117336;-73
2023/10/17 13:42:37;;;;;;;12.47;11.47;;;15.90;40.40;;;;;;20482;6852;337718;-72
2023/10/17 13:45:03;;;;;;;10.87;10.13;;;16.00;39.90;;;;;;20473;6852;282556;-72
2023/10/17 13:47:27;;;;;;;9.97;9.23;;;16.20;39.50;;;;;;20461;6852;278125;-71
2023/10/17 13:49:53;;;;;;;9.80;9.00;;;16.40;39.30;;;;;;20482;6845;278636;-73
2023/10/17 13:52:18;;;;;;;9.43;8.80;;;16.60;38.90;;;;;;20513;6836;282309;-75
2023/10/17 13:54:45;;;;;;;11.15;10.35;;;16.80;38.80;;;;;;20517;6836;342234;-72
2023/10/17 13:57:10;;;;;;;10.75;9.90;;;16.90;39.20;;;;;;20517;6836;306868;-74
2023/10/17 14:02:08;;;;;;;9.27;8.57;;;16.80;38.80;;;;;;19886;6836;280741;-84
2023/10/17 14:04:36;;;;;;;9.67;8.97;;;16.70;38.70;;;;;;20500;6836;278282;-77
2023/10/17 14:07:06;;;;;;;7.97;7.27;;;16.80;38.50;;;;;;20747;6836;117031;-78
2023/10/17 14:09:32;;;;;;;8.50;7.80;;;16.60;38.90;;;;;;20732;6836;120913;-77
2023/10/17 14:11:58;;;;;;;6.78;6.28;;;16.40;39.60;;;;;;20742;6836;117422;-75
2023/10/17 14:14:29;;;;;;;9.17;8.47;;;16.00;40.40;;;;;;20731;6836;123384;-71
2023/10/17 14:16:55;;;;;;;6.90;6.40;;;16.00;40.40;;;;;;20727;6837;119151;-76
2023/10/17 14:19:30;;;;;;;9.20;8.47;;;15.90;40.70;;;;;;20479;6837;308560;-72
2023/10/17 14:22:38;;;;;;;9.15;8.45;;;16.00;40.20;;;;;;20682;6837;117367;-72
2023/10/17 14:24:10;;;;;;;8.52;7.90;;;16.40;40.50;;;;;;20158;6837;306128;-72
2023/10/17 14:26:36;;;;;;;6.70;6.17;;;16.30;39.80;;;;;;20522;6837;315629;-72
2023/10/17 14:29:02;;;;;;;8.90;8.13;;;16.60;39.20;;;;;;20745;6837;117116;-71
2023/10/17 14:31:29;;;;;;;8.47;7.80;;;16.60;39.50;;;;;;20502;6837;308500;-78
2023/10/17 14:33:55;;;;;;;8.75;8.15;;;16.60;39.10;;;;;;20482;6837;286955;-72
2023/10/17 14:36:21;;;;;;;10.30;9.43;;;16.80;39.10;;;;;;20458;6837;320050;-73
2023/10/17 14:39:01;;;;;;;10.40;9.40;;;16.80;38.70;;;;;;20492;6837;283858;-75
2023/10/17 14:41:30;;;;;;;7.32;6.82;;;16.90;38.90;;;;;;20481;6837;340317;-72
2023/10/17 14:44:05;;;;;;;9.03;8.33;;;16.90;38.60;;;;;;20508;6837;309970;-75
2023/10/17 14:46:31;;;;;;;8.73;8.03;;;16.90;38.60;;;;;;20713;6837;117041;-74
2023/10/17 14:48:58;;;;;;;8.40;7.70;;;16.60;39.10;;;;;;20732;6837;118222;-73
2023/10/17 14:51:24;;;;;;;7.80;7.13;;;16.20;39.70;;;;;;20647;6835;121378;-75
2023/10/17 14:53:49;;;;;;;9.45;8.75;;;15.80;40.20;;;;;;20516;6836;312497;-76
2023/10/17 14:56:15;;;;;;;7.07;6.47;;;15.70;40.30;;;;;;20733;6836;116974;-75
2023/10/17 14:58:46;;;;;;;5.90;5.40;;;15.70;40.30;;;;;;20725;6836;117005;-76
2023/10/17 15:01:11;;;;;;;7.73;7.03;;;15.50;40.90;;;;;;20724;6836;116856;-75
2023/10/17 15:03:57;;;;;;;7.75;7.20;;;15.20;41.10;;;;;;20697;6836;119845;-77
2023/10/17 15:06:21;;;;;;;8.13;7.40;;;15.10;41.50;;;;;;20708;6836;117043;-78
2023/10/17 15:08:47;;;;;;;6.93;6.43;;;14.90;41.70;;;;;;20727;6836;117433;-75
2023/10/17 15:11:13;;;;;;;8.37;7.67;;;14.70;41.90;;;;;;20507;6836;279687;-75
2023/10/17 15:13:39;;;;;;;7.60;7.10;;;15.00;41.80;;;;;;20658;6836;117682;-73
2023/10/17 15:16:21;;;;;;;8.10;7.50;;;14.90;41.70;;;;;;20495;6836;281391;-74
2023/10/17 15:18:47;;;;;;;6.83;6.30;;;15.10;41.50;;;;;;20725;6836;117038;-73
2023/10/17 15:21:13;;;;;;;6.00;5.50;;;15.10;41.60;;;;;;20714;6836;117456;-75
2023/10/17 15:23:42;;;;;;;6.90;6.40;;;14.90;41.90;;;;;;20484;6836;311680;-74
2023/10/17 15:26:07;;;;;;;9.65;8.85;;;15.10;41.80;;;;;;20519;6836;307391;-76
2023/10/17 15:28:33;;;;;;;8.27;7.68;;;15.40;41.40;;;;;;20729;6837;117535;-73
2023/10/17 15:31:04;;;;;;;10.00;9.27;;;15.30;41.30;;;;;;20516;6837;277895;-71
2023/10/17 15:33:35;;;;;;;8.50;7.70;;;15.30;41.30;;;;;;20698;6837;124089;-73
2023/10/17 15:35:58;;;;;;;7.07;6.47;;;15.20;41.50;;;;;;20701;6837;117246;-72
2023/10/17 15:38:23;;;;;;;8.10;7.50;;;14.90;41.90;;;;;;20491;6837;307377;-75
2023/10/17 15:40:49;;;;;;;6.37;5.77;;;15.00;41.90;;;;;;20704;6837;118008;-71
2023/10/17 15:43:14;;;;;;;8.07;7.50;;;15.00;42.10;;;;;;20507;6837;307360;-70